Time;durP1;ratioP1;P1;durP2;ratioP2;P2;SDS_P1;SDS_P2;PMS_P1;PMS_P2;Temp;Humidity;BMP_temperature;BMP_pressure;BME280_temperature;BME280_humidity;BME280_pressure;Samples;Min_cycle;Max_cycle;Signal;HPM_P1;HPM_P2
2023/01/14 00:01:05;;;;;;;22.80;4.55;;;8.60;99.90;;;;;;4144615;28;20049;-71
2023/01/14 00:03:06;;;;;;;27.40;5.45;;;8.60;99.90;;;;;;4145079;28;20079;-71
2023/01/14 00:05:07;;;;;;;25.50;5.35;;;8.60;99.90;;;;;;4145730;28;20129;-71
2023/01/14 00:07:07;;;;;;;30.02;5.95;;;8.60;99.90;;;;;;4146190;28;20038;-70
2023/01/14 00:09:12;;;;;;;22.92;5.22;;;8.60;99.90;;;;;;4144869;28;20509;-69
2023/01/14 00:11:14;;;;;;;19.70;4.15;;;8.60;99.90;;;;;;4144839;28;20502;-70
2023/01/14 00:13:15;;;;;;;26.73;4.45;;;8.60;99.90;;;;;;4145733;28;20041;-70
2023/01/14 00:15:16;;;;;;;21.98;5.25;;;8.70;99.90;;;;;;4145383;28;20057;-70
2023/01/14 00:17:17;;;;;;;22.47;4.40;;;8.70;99.90;;;;;;4139177;28;20481;-70
2023/01/14 00:19:19;;;;;;;27.58;5.32;;;8.70;99.90;;;;;;4144976;28;20061;-70
2023/01/14 00:21:19;;;;;;;25.80;5.05;;;8.70;99.90;;;;;;4144753;28;20034;-70
2023/01/14 00:23:20;;;;;;;24.27;5.03;;;8.70;99.90;;;;;;4145334;28;20044;-70
2023/01/14 00:25:20;;;;;;;21.55;4.43;;;8.70;99.90;;;;;;4144635;28;20046;-70
2023/01/14 00:27:21;;;;;;;17.67;3.95;;;8.70;99.90;;;;;;4146875;28;20497;-70
2023/01/14 00:29:30;;;;;;;22.15;4.72;;;8.60;99.90;;;;;;4145163;28;20385;-70
2023/01/14 00:31:31;;;;;;;21.77;4.50;;;8.70;99.90;;;;;;4144643;28;20699;-68
2023/01/14 00:33:32;;;;;;;26.48;5.03;;;8.70;99.90;;;;;;4145107;28;20038;-69
2023/01/14 00:35:33;;;;;;;24.60;5.05;;;8.60;99.90;;;;;;4144655;28;20034;-69
2023/01/14 00:37:33;;;;;;;25.15;5.20;;;8.70;99.90;;;;;;4146110;28;20034;-69
2023/01/14 00:39:34;;;;;;;21.98;4.65;;;8.70;99.90;;;;;;4141104;28;20037;-69
2023/01/14 00:41:34;;;;;;;22.13;4.07;;;8.70;99.90;;;;;;4141823;28;20034;-70
2023/01/14 00:43:36;;;;;;;19.40;4.20;;;8.60;99.90;;;;;;4145115;28;20062;-70
2023/01/14 00:45:37;;;;;;;19.92;4.60;;;8.60;99.90;;;;;;4144663;28;20355;-69
2023/01/14 00:47:37;;;;;;;21.55;4.60;;;8.70;99.90;;;;;;4146028;28;20061;-70
2023/01/14 00:49:38;;;;;;;17.55;4.60;;;8.60;99.90;;;;;;4145290;28;20034;-70
2023/01/14 00:51:39;;;;;;;20.77;4.22;;;8.60;99.90;;;;;;4145208;28;20129;-69
2023/01/14 00:53:41;;;;;;;24.55;5.22;;;8.60;99.90;;;;;;4144788;28;20033;-70
2023/01/14 00:55:41;;;;;;;20.60;4.53;;;8.60;99.90;;;;;;4144605;28;20512;-70
2023/01/14 00:57:42;;;;;;;22.65;4.10;;;8.50;99.90;;;;;;4146444;28;20026;-69
2023/01/14 00:59:42;;;;;;;22.23;4.35;;;8.50;99.90;;;;;;4144675;28;20041;-70
2023/01/14 01:01:43;;;;;;;20.30;4.40;;;8.50;99.90;;;;;;4143373;28;20442;-70
2023/01/14 01:03:50;;;;;;;19.98;4.03;;;8.40;99.90;;;;;;4143605;28;20041;-70
2023/01/14 01:05:51;;;;;;;24.67;5.10;;;8.50;99.90;;;;;;4142618;28;20136;-70
2023/01/14 01:07:51;;;;;;;17.85;5.00;;;8.50;99.90;;;;;;4144072;28;20038;-70
2023/01/14 01:09:52;;;;;;;23.98;4.97;;;8.40;99.90;;;;;;4144325;28;20511;-69
2023/01/14 01:11:54;;;;;;;43.08;6.35;;;8.40;99.90;;;;;;4143770;28;20469;-69
2023/01/14 01:13:56;;;;;;;26.45;5.40;;;8.40;99.90;;;;;;4144956;28;20104;-70
2023/01/14 01:16:15;;;;;;;18.83;4.00;;;8.40;99.90;;;;;;4143871;28;20176;-68
2023/01/14 01:18:16;;;;;;;21.83;4.57;;;8.40;99.90;;;;;;4143907;28;20061;-70
2023/01/14 01:20:17;;;;;;;21.33;4.15;;;8.40;99.90;;;;;;4143725;28;20045;-70
2023/01/14 01:22:18;;;;;;;22.90;5.68;;;8.30;99.90;;;;;;4143886;28;20030;-70
2023/01/14 01:24:18;;;;;;;24.20;5.22;;;8.40;99.90;;;;;;4144270;28;20049;-70
2023/01/14 01:26:24;;;;;;;26.20;5.03;;;8.40;99.90;;;;;;4144391;28;20057;-70
2023/01/14 01:28:25;;;;;;;22.35;4.57;;;8.40;99.90;;;;;;4145056;28;20052;-70
2023/01/14 01:30:26;;;;;;;22.73;4.82;;;8.30;99.90;;;;;;4142898;28;20054;-70
2023/01/14 01:32:27;;;;;;;21.45;4.43;;;8.30;99.90;;;;;;4144544;28;20045;-68
2023/01/14 01:34:27;;;;;;;25.25;4.75;;;8.30;99.90;;;;;;4144427;28;20440;-69
2023/01/14 01:36:28;;;;;;;24.40;5.20;;;8.30;99.90;;;;;;4143483;28;20099;-69
2023/01/14 01:38:30;;;;;;;23.55;4.38;;;8.30;99.90;;;;;;4143716;28;20026;-69
2023/01/14 01:40:30;;;;;;;31.63;5.85;;;8.30;99.90;;;;;;4143610;28;20030;-69
2023/01/14 01:42:34;;;;;;;23.73;4.40;;;8.30;99.90;;;;;;4143947;28;20034;-67
2023/01/14 01:44:34;;;;;;;22.65;4.95;;;8.30;99.90;;;;;;4143751;28;20034;-69
2023/01/14 01:46:36;;;;;;;22.13;4.97;;;8.20;99.90;;;;;;4142857;28;20046;-69
2023/01/14 01:48:42;;;;;;;26.67;4.80;;;8.30;99.90;;;;;;4144914;28;20036;-71
2023/01/14 01:50:46;;;;;;;19.73;5.03;;;8.20;99.90;;;;;;4141255;28;20049;-70
2023/01/14 01:52:47;;;;;;;28.25;5.65;;;8.20;99.90;;;;;;4143695;28;20038;-70
2023/01/14 01:54:54;;;;;;;22.13;5.07;;;8.20;99.90;;;;;;4144580;28;20394;-70
2023/01/14 01:56:55;;;;;;;30.45;5.40;;;8.20;99.90;;;;;;4143534;28;20034;-70
2023/01/14 01:58:57;;;;;;;22.92;4.40;;;8.20;99.90;;;;;;4144876;28;20503;-70
2023/01/14 02:00:59;;;;;;;20.42;4.63;;;8.20;99.90;;;;;;4143224;28;20048;-69
2023/01/14 02:03:05;;;;;;;20.95;4.80;;;8.20;99.90;;;;;;4143032;28;20042;-69
2023/01/14 02:05:06;;;;;;;21.77;4.47;;;8.20;99.90;;;;;;4144159;28;20056;-71
2023/01/14 02:07:15;;;;;;;18.08;4.13;;;8.20;99.90;;;;;;4144872;28;20037;-70
2023/01/14 02:09:17;;;;;;;24.38;5.25;;;8.20;99.90;;;;;;4143052;28;20445;-70
2023/01/14 02:11:43;;;;;;;28.03;5.40;;;8.10;99.90;;;;;;4143509;28;20389;-70
2023/01/14 02:14:34;;;;;;;17.20;3.92;;;8.10;99.90;;;;;;4143676;28;20371;-70
2023/01/14 02:16:57;;;;;;;22.73;4.57;;;8.10;99.90;;;;;;4091034;28;20055;-69
2023/01/14 02:19:23;;;;;;;25.63;4.85;;;8.00;99.90;;;;;;4131498;28;20087;-69
2023/01/14 02:21:30;;;;;;;20.42;4.95;;;8.10;99.90;;;;;;4142580;28;20030;-70
2023/01/14 02:23:49;;;;;;;25.48;4.25;;;8.00;99.90;;;;;;4142755;28;20084;-69
2023/01/14 02:26:27;;;;;;;17.85;4.25;;;8.00;99.90;;;;;;4143340;28;20394;-70
2023/01/14 02:28:59;;;;;;;22.10;4.95;;;8.00;99.90;;;;;;4143773;28;20069;-68
2023/01/14 02:31:10;;;;;;;28.17;4.97;;;8.00;99.90;;;;;;4138238;28;20026;-69
2023/01/14 02:33:31;;;;;;;20.08;4.57;;;8.00;99.90;;;;;;4143129;28;20276;-70
2023/01/14 02:35:47;;;;;;;20.55;5.15;;;8.00;99.90;;;;;;4130214;28;20041;-68
2023/01/14 02:38:24;;;;;;;23.08;4.22;;;8.00;99.90;;;;;;4144808;28;20042;-70
2023/01/14 02:40:38;;;;;;;20.92;4.53;;;8.00;99.90;;;;;;4141987;28;20609;-70
2023/01/14 02:45:35;;;;;;;26.73;4.97;;;8.00;99.90;;;;;;4142243;28;20117;-71
2023/01/14 02:47:39;;;;;;;24.55;5.20;;;8.00;99.90;;;;;;4139673;28;20030;-69
2023/01/14 02:49:43;;;;;;;25.80;4.70;;;7.90;99.90;;;;;;4143817;28;20045;-69
2023/01/14 02:51:46;;;;;;;31.63;5.20;;;7.90;99.90;;;;;;4141782;28;20034;-69
2023/01/14 02:53:46;;;;;;;;;;;7.90;99.90;;;;;;4142962;28;20034;-70
2023/01/14 02:55:49;;;;;;;17.25;4.10;;;7.90;99.90;;;;;;4143326;28;19917;-70
2023/01/14 02:58:02;;;;;;;18.70;3.53;;;7.90;99.90;;;;;;4145582;28;20037;-70
2023/01/14 03:00:33;;;;;;;24.80;4.60;;;7.90;99.90;;;;;;4145447;28;20176;-70
2023/01/14 03:02:51;;;;;;;13.45;3.35;;;7.90;99.90;;;;;;4143397;28;20113;-69
2023/01/14 03:05:33;;;;;;;20.15;4.38;;;7.90;99.90;;;;;;4147656;28;20125;-70
2023/01/14 03:07:58;;;;;;;22.85;4.20;;;7.80;99.90;;;;;;4115719;28;20047;-69
2023/01/14 03:10:08;;;;;;;25.23;4.90;;;7.80;99.90;;;;;;4137932;28;20489;-69
2023/01/14 03:12:38;;;;;;;18.35;4.03;;;7.80;99.90;;;;;;4140923;28;20462;-69
2023/01/14 03:15:05;;;;;;;21.58;4.65;;;7.80;99.90;;;;;;4146568;28;20456;-69
2023/01/14 03:17:13;;;;;;;24.73;4.78;;;7.80;99.90;;;;;;4144369;28;20436;-69
2023/01/14 03:19:26;;;;;;;21.00;4.70;;;7.80;99.90;;;;;;4144744;28;20476;-69
2023/01/14 03:21:33;;;;;;;18.88;4.30;;;7.80;99.90;;;;;;4142925;28;20937;-69
2023/01/14 03:23:40;;;;;;;17.58;3.50;;;7.80;99.90;;;;;;4144834;28;20491;-70
2023/01/14 03:25:44;;;;;;;21.27;3.88;;;7.80;99.90;;;;;;4145454;28;20477;-69
2023/01/14 03:27:47;;;;;;;22.48;4.57;;;7.80;99.90;;;;;;4146186;28;20030;-70
2023/01/14 03:29:54;;;;;;;30.98;4.60;;;7.70;99.90;;;;;;4147290;28;20053;-69
2023/01/14 03:32:16;;;;;;;20.80;4.40;;;7.70;99.90;;;;;;4144804;28;20030;-70
2023/01/14 03:34:21;;;;;;;16.48;3.67;;;7.70;99.90;;;;;;4140205;28;20038;-69
2023/01/14 03:36:24;;;;;;;14.65;3.33;;;7.70;99.90;;;;;;4146282;28;20447;-70
2023/01/14 03:38:29;;;;;;;18.75;3.67;;;7.70;99.90;;;;;;4146076;28;20445;-70
2023/01/14 03:40:34;;;;;;;15.60;3.80;;;7.70;99.90;;;;;;4144103;28;20036;-69
2023/01/14 03:42:43;;;;;;;23.88;4.60;;;7.70;99.90;;;;;;4146411;28;20026;-69
2023/01/14 03:44:58;;;;;;;27.83;4.38;;;7.70;99.90;;;;;;4147021;28;20500;-69
2023/01/14 03:46:59;;;;;;;19.95;3.83;;;7.70;99.90;;;;;;4145020;28;20088;-69
2023/01/14 03:49:00;;;;;;;22.63;5.00;;;7.70;99.90;;;;;;4146785;28;20030;-70
2023/01/14 03:51:01;;;;;;;21.42;4.53;;;7.60;99.90;;;;;;4145732;28;20052;-69
2023/01/14 03:53:11;;;;;;;20.88;4.18;;;7.60;99.90;;;;;;4145379;28;20081;-67
2023/01/14 03:55:34;;;;;;;26.02;4.93;;;7.60;99.90;;;;;;4144832;28;20053;-70
2023/01/14 03:57:38;;;;;;;;;;;7.60;99.90;;;;;;4139696;28;20110;-69
2023/01/14 03:59:58;;;;;;;20.83;4.10;;;7.60;99.90;;;;;;4146238;28;20422;-69
2023/01/14 04:02:00;;;;;;;20.42;4.07;;;7.60;99.90;;;;;;4144722;28;20508;-70
2023/01/14 04:04:02;;;;;;;20.67;4.35;;;7.70;99.90;;;;;;4144919;28;20065;-69
2023/01/14 04:06:03;;;;;;;19.10;3.75;;;7.60;99.90;;;;;;4145202;28;20129;-69
2023/01/14 04:08:05;;;;;;;22.55;4.15;;;7.60;99.90;;;;;;4146181;28;20040;-69
2023/01/14 04:10:06;;;;;;;18.17;4.70;;;7.60;99.90;;;;;;4145711;28;20062;-70
2023/01/14 04:12:07;;;;;;;19.15;3.72;;;7.60;99.90;;;;;;4145969;28;20104;-69
2023/01/14 04:16:27;;;;;;;17.30;3.33;;;7.60;99.90;;;;;;4144727;28;20056;-70
2023/01/14 04:18:28;;;;;;;25.98;4.32;;;7.60;99.90;;;;;;4146569;28;20465;-68
2023/01/14 04:20:31;;;;;;;15.10;3.53;;;7.60;99.90;;;;;;4144162;28;20057;-69
2023/01/14 04:22:31;;;;;;;;;;;7.70;99.90;;;;;;4142858;28;20116;-69
2023/01/14 04:24:32;;;;;;;26.17;4.60;;;7.60;99.90;;;;;;4144899;28;19957;-68
2023/01/14 04:26:32;;;;;;;19.52;3.45;;;7.60;99.90;;;;;;4143590;28;20044;-69
2023/01/14 04:28:33;;;;;;;15.70;3.60;;;7.60;99.90;;;;;;4145505;28;20409;-69
2023/01/14 04:30:34;;;;;;;19.23;3.75;;;7.60;99.90;;;;;;4141642;28;20041;-69
2023/01/14 04:32:34;;;;;;;18.92;3.92;;;7.60;99.90;;;;;;4142983;28;20037;-69
2023/01/14 04:34:35;;;;;;;20.75;4.13;;;7.70;99.90;;;;;;4144625;28;20084;-69
2023/01/14 04:36:35;;;;;;;17.95;4.00;;;7.70;99.90;;;;;;4145408;28;20121;-69
2023/01/14 04:38:36;;;;;;;18.45;3.70;;;7.70;99.90;;;;;;4142423;28;20037;-69
2023/01/14 04:40:37;;;;;;;17.15;3.78;;;7.70;99.90;;;;;;4142628;28;20398;-70
2023/01/14 04:42:37;;;;;;;20.10;3.88;;;7.70;99.90;;;;;;4145092;28;20482;-70
2023/01/14 04:44:38;;;;;;;17.48;3.92;;;7.70;99.90;;;;;;4143427;28;20397;-70
2023/01/14 04:46:38;;;;;;;20.33;4.15;;;7.70;99.90;;;;;;4139719;28;20048;-69
2023/01/14 04:48:39;;;;;;;17.05;3.47;;;7.60;99.90;;;;;;4145708;28;20030;-69
2023/01/14 04:50:43;;;;;;;18.92;3.67;;;7.60;99.90;;;;;;4142329;28;20022;-69
2023/01/14 04:52:44;;;;;;;18.50;3.88;;;7.60;99.90;;;;;;4140615;28;20050;-69
2023/01/14 04:54:45;;;;;;;14.50;3.50;;;7.60;99.90;;;;;;4142454;28;20037;-70
2023/01/14 04:56:45;;;;;;;11.18;3.22;;;7.60;99.90;;;;;;4143513;28;20469;-70
2023/01/14 04:58:47;;;;;;;16.35;3.50;;;7.60;99.90;;;;;;4143257;28;20042;-69
2023/01/14 05:00:47;;;;;;;18.48;4.20;;;7.70;99.90;;;;;;4144144;28;20088;-69
2023/01/14 05:02:48;;;;;;;23.52;5.00;;;7.70;99.90;;;;;;4144822;28;20046;-69
2023/01/14 05:04:49;;;;;;;20.27;4.35;;;7.60;99.90;;;;;;4142357;28;20018;-70
2023/01/14 05:06:49;;;;;;;16.58;3.72;;;7.70;99.90;;;;;;4141853;28;20393;-70
2023/01/14 05:08:50;;;;;;;31.85;3.80;;;7.60;99.90;;;;;;4139919;28;20038;-69
2023/01/14 05:10:50;;;;;;;18.42;3.75;;;7.70;99.90;;;;;;4135850;28;20103;-69
2023/01/14 05:12:57;;;;;;;18.42;3.70;;;7.70;99.90;;;;;;4142321;28;20673;-70
2023/01/14 05:14:57;;;;;;;16.00;3.67;;;7.60;99.90;;;;;;4140061;28;20100;-70
2023/01/14 05:16:58;;;;;;;24.45;4.57;;;7.60;99.90;;;;;;4143001;28;20436;-68
2023/01/14 05:18:59;;;;;;;23.65;4.10;;;7.60;99.90;;;;;;4141010;28;20056;-69
2023/01/14 05:20:59;;;;;;;23.38;4.10;;;7.60;99.90;;;;;;4143430;28;20394;-70
2023/01/14 05:23:02;;;;;;;16.38;3.88;;;7.60;99.90;;;;;;4143877;28;20652;-69
2023/01/14 05:25:03;;;;;;;21.83;3.67;;;7.60;99.90;;;;;;4141102;28;20030;-70
2023/01/14 05:27:04;;;;;;;11.40;3.30;;;7.60;99.90;;;;;;4138531;28;20042;-69
2023/01/14 05:29:05;;;;;;;17.58;3.67;;;7.60;99.90;;;;;;4139275;28;20026;-69
2023/01/14 05:31:05;;;;;;;17.92;3.30;;;7.60;99.90;;;;;;4139685;28;20037;-70
2023/01/14 05:33:06;;;;;;;15.82;3.50;;;7.60;99.90;;;;;;4138105;28;20048;-69
2023/01/14 05:35:07;;;;;;;17.00;3.35;;;7.60;99.90;;;;;;4143118;28;20034;-70
2023/01/14 05:37:08;;;;;;;17.23;3.92;;;7.60;99.90;;;;;;4144021;28;20042;-69
2023/01/14 05:39:09;;;;;;;12.93;2.83;;;7.60;99.90;;;;;;4140649;28;20032;-69
2023/01/14 05:41:13;;;;;;;16.58;3.45;;;7.60;99.90;;;;;;4140007;28;20034;-69
2023/01/14 05:45:48;;;;;;;21.77;3.78;;;7.60;99.90;;;;;;4137135;28;20041;-68
2023/01/14 05:47:48;;;;;;;14.82;3.03;;;7.60;99.90;;;;;;4138476;28;20507;-69
2023/01/14 05:49:49;;;;;;;17.58;4.55;;;7.60;99.90;;;;;;4142982;28;20034;-69
2023/01/14 05:51:49;;;;;;;15.48;3.47;;;7.60;99.90;;;;;;4144027;28;20053;-70
2023/01/14 05:53:50;;;;;;;16.52;3.95;;;7.60;99.90;;;;;;4142746;28;20034;-70
2023/01/14 05:55:52;;;;;;;27.30;4.32;;;7.60;99.90;;;;;;4139892;28;20037;-70
2023/01/14 05:57:52;;;;;;;18.52;3.97;;;7.50;99.90;;;;;;4141814;28;20042;-69
2023/01/14 05:59:53;;;;;;;18.05;3.85;;;7.60;99.90;;;;;;4143942;28;20469;-70
2023/01/14 06:06:38;;;;;;;20.02;3.60;;;7.60;99.90;;;;;;4140758;28;20042;-69
2023/01/14 06:08:38;;;;;;;19.05;3.65;;;7.60;99.90;;;;;;4140436;28;20038;-70
2023/01/14 06:10:39;;;;;;;13.55;3.85;;;7.60;99.90;;;;;;4139491;28;20038;-68
2023/01/14 06:12:57;;;;;;;13.88;3.60;;;7.60;99.90;;;;;;4140407;28;20156;-68
2023/01/14 06:14:58;;;;;;;14.50;3.67;;;7.60;99.90;;;;;;4139694;28;20096;-69
2023/01/14 06:16:59;;;;;;;19.48;3.95;;;7.60;99.90;;;;;;4140558;28;20444;-69
2023/01/14 06:18:59;;;;;;;16.55;3.92;;;7.60;99.90;;;;;;4141119;28;20029;-68
2023/01/14 06:21:00;;;;;;;19.90;4.30;;;7.60;99.90;;;;;;4139979;28;20018;-68
2023/01/14 06:23:00;;;;;;;18.90;4.28;;;7.60;99.90;;;;;;4141060;28;20022;-67
2023/01/14 06:25:01;;;;;;;18.38;3.78;;;7.50;99.90;;;;;;4142342;28;20034;-68
2023/01/14 06:27:01;;;;;;;19.02;4.30;;;7.60;99.90;;;;;;4139584;28;20030;-68
2023/01/14 06:29:07;;;;;;;23.17;4.35;;;7.60;99.90;;;;;;4139645;28;20030;-68
2023/01/14 06:31:13;;;;;;;19.85;4.30;;;7.60;99.90;;;;;;4141776;28;20041;-69
2023/01/14 06:33:13;;;;;;;18.25;3.10;;;7.60;99.90;;;;;;4142447;28;20060;-68
2023/01/14 06:35:14;;;;;;;16.55;3.53;;;7.60;99.90;;;;;;4140428;28;20125;-69
2023/01/14 06:37:15;;;;;;;21.38;3.80;;;7.60;99.90;;;;;;4140209;28;20370;-68
2023/01/14 06:39:15;;;;;;;17.35;3.40;;;7.70;99.90;;;;;;4142128;28;20561;-68
2023/01/14 06:41:16;;;;;;;23.20;4.95;;;7.60;99.90;;;;;;4141038;28;20390;-68
2023/01/14 06:43:16;;;;;;;18.48;3.78;;;7.70;99.90;;;;;;4141074;28;20443;-68
2023/01/14 06:45:17;;;;;;;22.08;4.47;;;7.70;99.90;;;;;;4137298;28;20060;-69
2023/01/14 06:47:17;;;;;;;17.88;4.10;;;7.80;99.90;;;;;;4143815;28;20113;-68
2023/01/14 06:49:18;;;;;;;17.38;3.05;;;7.70;99.90;;;;;;4142071;28;20034;-69
2023/01/14 06:51:20;;;;;;;19.05;3.92;;;7.70;99.90;;;;;;4141876;28;20038;-69
2023/01/14 06:53:23;;;;;;;16.13;4.03;;;7.80;99.90;;;;;;4141643;28;20041;-69
2023/01/14 06:55:23;;;;;;;15.45;3.13;;;7.80;99.90;;;;;;4139913;28;20049;-68
2023/01/14 06:57:24;;;;;;;13.85;3.20;;;7.80;99.90;;;;;;4140237;28;20481;-68
2023/01/14 06:59:24;;;;;;;16.30;3.63;;;7.80;99.90;;;;;;4139441;28;20183;-68
2023/01/14 07:01:25;;;;;;;19.60;3.63;;;7.80;99.90;;;;;;4139495;28;20324;-69
2023/01/14 07:03:26;;;;;;;19.17;3.70;;;7.80;99.90;;;;;;4143066;28;20044;-69
2023/01/14 07:05:27;;;;;;;16.50;3.55;;;7.80;99.90;;;;;;4139919;28;21222;-70
2023/01/14 07:07:27;;;;;;;12.60;3.30;;;7.80;99.90;;;;;;4140535;28;20084;-70
2023/01/14 07:09:28;;;;;;;18.67;3.92;;;7.70;99.90;;;;;;4140992;28;20033;-70
2023/01/14 07:11:28;;;;;;;17.27;3.75;;;7.70;99.90;;;;;;4139886;28;20085;-69
2023/01/14 07:13:29;;;;;;;14.63;3.58;;;7.70;99.90;;;;;;4141344;28;20604;-70
2023/01/14 07:15:29;;;;;;;21.77;4.07;;;7.70;99.90;;;;;;4137692;28;20608;-68
2023/01/14 07:17:30;;;;;;;16.33;3.05;;;7.70;99.90;;;;;;4140960;28;20056;-69
2023/01/14 07:19:30;;;;;;;14.80;3.83;;;7.70;99.90;;;;;;4144670;28;20029;-68
2023/01/14 07:21:31;;;;;;;14.32;3.22;;;7.70;99.90;;;;;;4143119;28;20155;-68
2023/01/14 07:23:32;;;;;;;17.27;3.70;;;7.60;99.90;;;;;;4142592;28;20026;-68
2023/01/14 07:25:32;;;;;;;14.98;2.75;;;7.60;99.90;;;;;;4141186;28;20096;-68
2023/01/14 07:27:33;;;;;;;18.02;3.70;;;7.70;99.90;;;;;;4141975;28;20038;-69
2023/01/14 07:29:34;;;;;;;14.10;2.92;;;7.60;99.90;;;;;;4141133;28;20448;-69
2023/01/14 07:31:34;;;;;;;16.60;3.25;;;7.60;99.90;;;;;;4137133;28;20034;-69
2023/01/14 07:33:35;;;;;;;14.55;3.25;;;7.60;99.90;;;;;;4141464;28;20113;-70
2023/01/14 07:35:37;;;;;;;12.77;2.83;;;7.50;99.90;;;;;;4140315;28;20385;-70
2023/01/14 07:37:38;;;;;;;18.40;3.80;;;7.50;99.90;;;;;;4142723;28;20390;-71
2023/01/14 07:39:38;;;;;;;17.33;2.92;;;7.50;99.90;;;;;;4140432;28;20049;-72
2023/01/14 07:41:39;;;;;;;14.05;3.17;;;7.50;99.90;;;;;;4140464;28;20032;-72
2023/01/14 07:43:39;;;;;;;14.43;2.97;;;7.50;99.90;;;;;;4138645;28;20041;-74
2023/01/14 07:45:40;;;;;;;18.45;4.05;;;7.50;99.90;;;;;;4140663;28;20069;-72
2023/01/14 07:47:41;;;;;;;26.60;3.55;;;7.50;99.90;;;;;;4145630;28;20401;-71
2023/01/14 07:49:42;;;;;;;17.40;3.22;;;7.50;99.90;;;;;;4142492;28;20034;-73
2023/01/14 07:51:42;;;;;;;16.92;3.65;;;7.50;99.90;;;;;;4140251;28;20547;-71
2023/01/14 07:53:43;;;;;;;14.55;3.40;;;7.50;99.90;;;;;;4144730;28;20042;-73
2023/01/14 07:55:43;;;;;;;14.23;3.60;;;7.50;99.90;;;;;;4143352;28;20038;-71
2023/01/14 07:57:44;;;;;;;16.17;3.55;;;7.40;99.90;;;;;;4145006;28;20038;-71
2023/01/14 07:59:44;;;;;;;15.57;3.35;;;7.40;99.90;;;;;;4140235;28;20036;-71
2023/01/14 08:01:45;;;;;;;16.58;3.15;;;7.40;99.90;;;;;;4142964;28;20030;-71
2023/01/14 08:03:45;;;;;;;14.40;3.00;;;7.40;99.90;;;;;;4143909;28;20461;-71
2023/01/14 08:05:46;;;;;;;11.68;2.85;;;7.40;99.90;;;;;;4142249;28;20060;-71
2023/01/14 08:07:47;;;;;;;12.65;3.00;;;7.30;99.90;;;;;;4140297;28;20042;-73
2023/01/14 08:09:47;;;;;;;10.63;3.35;;;7.30;99.90;;;;;;4138954;28;20042;-69
2023/01/14 08:11:48;;;;;;;12.65;3.08;;;7.40;99.90;;;;;;4138110;28;20104;-68
2023/01/14 08:13:51;;;;;;;15.93;3.35;;;7.30;99.90;;;;;;4138815;28;20108;-69
2023/01/14 08:15:55;;;;;;;14.73;3.65;;;7.30;99.90;;;;;;4137804;28;20054;-69
2023/01/14 08:17:56;;;;;;;14.02;3.25;;;7.40;99.90;;;;;;4138407;28;20034;-71
2023/01/14 08:19:57;;;;;;;16.75;3.65;;;7.30;99.90;;;;;;4140337;28;20034;-72
2023/01/14 08:21:57;;;;;;;18.75;3.38;;;7.30;99.90;;;;;;4116239;28;20590;-72
2023/01/14 08:23:58;;;;;;;13.40;3.42;;;7.30;99.90;;;;;;4137582;28;20029;-71
2023/01/14 08:26:03;;;;;;;17.48;3.47;;;7.30;99.90;;;;;;4137732;28;20041;-71
2023/01/14 08:28:05;;;;;;;9.32;2.85;;;7.40;99.90;;;;;;4138084;28;20038;-71
2023/01/14 08:30:06;;;;;;;14.25;3.60;;;7.40;99.90;;;;;;4139155;28;20579;-70
2023/01/14 08:32:07;;;;;;;13.27;2.78;;;7.30;99.90;;;;;;4139009;28;20042;-70
2023/01/14 08:34:07;;;;;;;19.55;3.28;;;7.40;99.90;;;;;;4139276;28;20044;-70
2023/01/14 08:36:14;;;;;;;18.50;3.28;;;7.40;99.90;;;;;;4137411;28;20885;-70
2023/01/14 08:38:14;;;;;;;12.05;2.78;;;7.40;99.90;;;;;;4141181;28;20037;-70
2023/01/14 08:40:17;;;;;;;17.92;3.58;;;7.40;99.90;;;;;;4143091;28;20038;-70
2023/01/14 08:42:18;;;;;;;11.93;2.83;;;7.40;99.90;;;;;;4144947;28;20443;-70
2023/01/14 08:44:19;;;;;;;15.00;3.53;;;7.40;99.90;;;;;;4144986;28;20033;-70
2023/01/14 08:46:19;;;;;;;15.10;3.58;;;7.40;99.90;;;;;;4143475;28;20235;-69
2023/01/14 08:48:20;;;;;;;12.75;3.47;;;7.40;99.90;;;;;;4143642;28;20042;-70
2023/01/14 08:50:20;;;;;;;13.38;2.75;;;7.40;99.90;;;;;;4142022;28;20026;-69
2023/01/14 08:52:21;;;;;;;12.73;3.10;;;7.40;99.90;;;;;;4141206;28;20037;-69
2023/01/14 08:54:21;;;;;;;15.13;3.58;;;7.50;99.90;;;;;;4138855;28;20056;-69
2023/01/14 08:56:22;;;;;;;14.40;4.03;;;7.50;99.90;;;;;;4138054;28;20034;-69
2023/01/14 08:58:24;;;;;;;13.38;3.20;;;7.50;99.90;;;;;;4136300;28;20431;-68
2023/01/14 09:00:24;;;;;;;14.20;3.60;;;7.50;99.90;;;;;;4136372;28;20041;-68
2023/01/14 09:02:25;;;;;;;12.07;2.80;;;7.50;99.90;;;;;;4137117;28;20501;-68
2023/01/14 09:04:25;;;;;;;15.52;3.20;;;7.50;99.90;;;;;;4140348;28;20499;-68
2023/01/14 09:06:26;;;;;;;16.40;3.03;;;7.50;99.90;;;;;;4138553;28;20030;-69
2023/01/14 09:17:47;;;;;;;13.23;2.92;;;7.50;99.90;;;;;;4142648;28;20492;-68
2023/01/14 09:19:50;;;;;;;11.70;2.75;;;7.60;99.90;;;;;;4142400;28;20042;-69
2023/01/14 09:21:51;;;;;;;11.48;2.67;;;7.60;99.90;;;;;;4137389;28;20121;-68
2023/01/14 09:23:51;;;;;;;13.68;3.20;;;7.60;99.90;;;;;;4139122;28;20045;-68
2023/01/14 09:25:52;;;;;;;13.40;3.05;;;7.60;99.90;;;;;;4144151;28;20473;-69
2023/01/14 09:27:53;;;;;;;11.93;2.88;;;7.60;99.90;;;;;;4144363;28;20496;-68
2023/01/14 09:29:53;;;;;;;13.02;2.90;;;7.60;99.90;;;;;;4143343;28;20030;-69
2023/01/14 09:31:54;;;;;;;14.18;2.90;;;7.60;99.90;;;;;;4143284;28;20026;-68
2023/01/14 09:33:55;;;;;;;10.15;2.22;;;7.70;99.90;;;;;;4141839;28;20037;-68
2023/01/14 09:35:58;;;;;;;9.93;2.55;;;7.70;99.90;;;;;;4140336;28;20050;-68
2023/01/14 09:37:59;;;;;;;11.07;2.15;;;7.70;99.90;;;;;;4142622;28;20046;-68
2023/01/14 09:40:00;;;;;;;7.80;2.22;;;7.70;99.90;;;;;;4144760;28;20044;-68
2023/01/14 09:42:06;;;;;;;10.38;2.25;;;7.70;99.90;;;;;;4143626;28;20161;-68
2023/01/14 09:44:08;;;;;;;13.07;2.72;;;7.80;99.90;;;;;;4144473;28;20032;-69
2023/01/14 09:46:10;;;;;;;10.68;2.15;;;7.80;99.90;;;;;;4143797;28;20584;-69
2023/01/14 09:48:16;;;;;;;10.60;2.08;;;7.80;99.90;;;;;;4144981;28;20482;-69
2023/01/14 09:50:28;;;;;;;10.55;2.35;;;7.80;99.90;;;;;;4141453;28;20036;-69
2023/01/14 09:52:43;;;;;;;8.45;1.92;;;7.80;99.90;;;;;;4145025;28;20030;-69
2023/01/14 09:54:56;;;;;;;9.40;2.10;;;7.90;99.90;;;;;;4137349;28;20038;-69
2023/01/14 09:57:29;;;;;;;9.25;1.95;;;7.90;99.90;;;;;;4140014;28;20037;-70
2023/01/14 09:59:49;;;;;;;9.95;1.92;;;7.90;99.90;;;;;;4144891;28;20493;-69
2023/01/14 10:02:00;;;;;;;7.03;2.13;;;7.90;99.90;;;;;;4140893;28;20041;-70
2023/01/14 10:04:40;;;;;;;5.78;1.73;;;8.00;99.90;;;;;;4143225;28;20034;-69
2023/01/14 10:06:43;;;;;;;4.90;1.73;;;7.90;99.90;;;;;;4114941;28;20053;-69
2023/01/14 10:08:51;;;;;;;5.78;1.83;;;8.00;99.90;;;;;;4143980;28;20412;-70
2023/01/14 10:10:52;;;;;;;6.53;2.47;;;8.00;99.90;;;;;;4141674;28;20119;-70
2023/01/14 10:12:56;;;;;;;7.80;2.83;;;8.00;99.90;;;;;;4144091;28;20407;-71
2023/01/14 10:15:32;;;;;;;9.05;2.45;;;8.00;99.90;;;;;;4143345;28;20042;-71
2023/01/14 10:17:37;;;;;;;6.20;2.03;;;8.10;99.90;;;;;;4143649;28;20121;-71
2023/01/14 10:19:46;;;;;;;10.60;3.42;;;8.10;99.90;;;;;;4139681;28;20037;-70
2023/01/14 10:21:49;;;;;;;13.43;4.82;;;8.10;99.90;;;;;;4141945;28;20034;-70
2023/01/14 10:23:50;;;;;;;10.48;4.03;;;8.10;99.90;;;;;;4144325;28;20113;-71
2023/01/14 10:25:54;;;;;;;12.20;4.20;;;8.10;99.90;;;;;;4142731;28;20050;-70
2023/01/14 10:27:59;;;;;;;13.68;4.60;;;8.20;99.90;;;;;;4143040;28;20057;-71
2023/01/14 10:30:21;;;;;;;11.93;3.95;;;8.20;99.90;;;;;;4144037;28;20061;-70
2023/01/14 10:32:23;;;;;;;13.82;4.70;;;8.20;99.90;;;;;;4143101;28;20516;-70
2023/01/14 10:34:46;;;;;;;23.05;7.50;;;8.20;99.90;;;;;;4143242;28;20556;-71
2023/01/14 10:36:46;;;;;;;17.13;5.20;;;8.30;99.90;;;;;;4139792;28;20026;-71
2023/01/14 10:38:48;;;;;;;20.98;7.05;;;8.30;99.90;;;;;;4141625;28;20030;-71
2023/01/14 10:40:50;;;;;;;17.85;6.20;;;8.30;99.90;;;;;;4140186;28;20116;-71
2023/01/14 10:42:53;;;;;;;13.35;4.47;;;8.30;99.90;;;;;;4141496;28;20044;-71
2023/01/14 10:44:55;;;;;;;10.95;3.75;;;8.30;99.90;;;;;;4142232;28;20564;-71
2023/01/14 10:47:16;;;;;;;13.40;4.10;;;8.30;99.90;;;;;;4144076;28;20503;-70
2023/01/14 10:49:21;;;;;;;11.70;3.25;;;8.40;99.90;;;;;;4144325;28;20075;-70
2023/01/14 10:51:36;;;;;;;6.63;1.95;;;8.40;99.90;;;;;;4141930;28;20075;-71
2023/01/14 10:53:39;;;;;;;6.07;1.80;;;8.30;99.90;;;;;;4137454;28;20026;-71
2023/01/14 10:55:51;;;;;;;3.25;1.30;;;8.40;99.90;;;;;;4142387;28;20045;-73
2023/01/14 10:58:16;;;;;;;6.15;1.60;;;8.40;99.90;;;;;;4136054;28;20060;-71
2023/01/14 11:00:34;;;;;;;7.55;1.58;;;8.40;99.90;;;;;;4129775;28;20038;-71
2023/01/14 11:02:37;;;;;;;2.53;1.10;;;8.40;99.90;;;;;;4138235;28;20022;-71
2023/01/14 11:04:42;;;;;;;3.70;1.38;;;8.40;99.90;;;;;;4136974;28;20030;-71
2023/01/14 11:06:43;;;;;;;5.35;1.30;;;8.50;99.90;;;;;;4140597;28;20045;-70
2023/01/14 11:08:47;;;;;;;7.90;1.60;;;8.40;99.90;;;;;;4143769;28;20052;-70
2023/01/14 11:11:00;;;;;;;8.18;1.90;;;8.50;99.90;;;;;;4140762;28;20040;-71